createdAt,value
2017-10-22T00:01:15.220Z,2.00
2017-10-22T00:03:41.981Z,2.53
2017-10-22T00:06:08.724Z,2.60
2017-10-22T00:08:35.477Z,2.50
2017-10-22T00:11:02.219Z,2.30
2017-10-22T00:13:29.066Z,2.40
2017-10-22T00:15:55.810Z,2.50
2017-10-22T00:18:22.545Z,2.10
2017-10-22T00:20:49.337Z,1.90
2017-10-22T00:23:16.069Z,3.20
2017-10-22T00:25:44.329Z,2.33
2017-10-22T00:28:11.832Z,2.03
2017-10-22T00:30:38.571Z,2.47
2017-10-22T00:33:05.324Z,1.90
2017-10-22T00:35:32.197Z,2.10
2017-10-22T00:37:59.870Z,2.60
2017-10-22T00:40:27.512Z,1.97
2017-10-22T00:42:55.404Z,2.33
2017-10-22T00:45:22.147Z,2.10
2017-10-22T00:47:49.644Z,2.13
2017-10-22T00:50:16.413Z,1.90
2017-10-22T00:52:43.200Z,2.47
2017-10-22T00:55:10.709Z,2.80
2017-10-22T00:57:37.488Z,2.60
2017-10-22T01:00:04.269Z,2.80
2017-10-22T01:02:30.987Z,1.73
2017-10-22T01:04:57.724Z,1.90
2017-10-22T01:07:24.488Z,2.37
2017-10-22T01:09:51.231Z,2.23
2017-10-22T01:12:17.975Z,2.70
2017-10-22T01:14:44.743Z,2.50
2017-10-22T01:17:11.534Z,1.90
2017-10-22T01:19:38.252Z,3.67
2017-10-22T01:22:05.062Z,2.40
2017-10-22T01:24:32.567Z,2.13
2017-10-22T01:26:59.365Z,2.43
2017-10-22T01:29:26.095Z,2.50
2017-10-22T01:31:53.687Z,2.10
2017-10-22T01:34:20.432Z,2.40
2017-10-22T01:36:48.250Z,2.70
2017-10-22T01:39:15.764Z,2.60
2017-10-22T01:41:42.499Z,2.30
2017-10-22T01:44:09.310Z,1.97
2017-10-22T01:46:36.792Z,1.90
2017-10-22T01:49:03.532Z,2.77
2017-10-22T01:51:30.280Z,2.50
2017-10-22T01:53:57.068Z,2.07
2017-10-22T01:56:24.566Z,2.83
2017-10-22T01:58:51.300Z,2.37
2017-10-22T02:01:18.044Z,2.50
2017-10-22T02:03:44.794Z,2.30
2017-10-22T02:06:11.560Z,2.17
2017-10-22T02:08:38.287Z,2.67
2017-10-22T02:11:05.051Z,2.70
2017-10-22T02:13:32.557Z,2.47
2017-10-22T02:15:59.305Z,2.80
2017-10-22T02:18:26.070Z,2.23
2017-10-22T02:20:52.821Z,2.13
2017-10-22T02:23:19.570Z,2.30
2017-10-22T02:25:47.060Z,2.47
2017-10-22T02:28:13.815Z,2.77
2017-10-22T02:30:40.551Z,2.50
2017-10-22T02:33:07.277Z,2.47
2017-10-22T02:35:34.036Z,2.90
2017-10-22T02:38:00.841Z,2.97
2017-10-22T02:40:28.321Z,2.27
2017-10-22T02:42:55.060Z,2.83
2017-10-22T02:45:21.796Z,2.40
2017-10-22T02:47:48.525Z,2.37
2017-10-22T02:50:15.278Z,2.53
2017-10-22T02:52:42.019Z,2.87
2017-10-22T02:55:08.804Z,2.43
2017-10-22T02:57:36.297Z,3.00
2017-10-22T03:00:03.052Z,2.60
2017-10-22T03:02:29.842Z,2.47
2017-10-22T03:04:57.363Z,2.20
2017-10-22T03:07:24.084Z,2.70
2017-10-22T03:09:50.827Z,2.93
2017-10-22T03:12:17.740Z,3.20
2017-10-22T03:14:44.482Z,2.03
2017-10-22T03:17:11.988Z,2.57
2017-10-22T03:19:38.734Z,2.57
2017-10-22T03:22:05.484Z,2.93
2017-10-22T03:24:32.208Z,2.37
2017-10-22T03:26:58.987Z,2.80
2017-10-22T03:29:26.468Z,2.90
2017-10-22T03:31:53.192Z,2.83
2017-10-22T03:34:19.953Z,2.10
2017-10-22T03:36:46.709Z,2.60
2017-10-22T03:39:13.452Z,2.37
2017-10-22T03:41:40.180Z,2.50
2017-10-22T03:44:06.911Z,2.40
2017-10-22T03:46:33.640Z,2.23
2017-10-22T03:49:00.432Z,2.07
2017-10-22T03:51:27.942Z,3.00
2017-10-22T03:53:54.684Z,2.20
2017-10-22T03:56:21.472Z,2.80
2017-10-22T03:58:49.000Z,2.80
2017-10-22T04:01:15.735Z,3.37
2017-10-22T04:03:42.468Z,2.70
2017-10-22T04:06:09.244Z,2.60
2017-10-22T04:08:36.764Z,3.00
2017-10-22T04:11:03.491Z,2.90
2017-10-22T04:13:30.257Z,2.93
2017-10-22T04:15:56.988Z,2.13
2017-10-22T04:18:23.738Z,2.07
2017-10-22T04:20:50.501Z,2.27
2017-10-22T04:23:17.259Z,2.37
2017-10-22T04:25:43.995Z,2.37
2017-10-22T04:28:10.735Z,3.30
2017-10-22T04:30:38.223Z,2.80
2017-10-22T04:33:04.988Z,2.17
2017-10-22T04:35:31.721Z,2.90
2017-10-22T04:37:58.480Z,2.20
2017-10-22T04:40:26.080Z,2.90
2017-10-22T04:42:52.808Z,2.53
2017-10-22T04:45:19.555Z,2.40
2017-10-22T04:47:46.415Z,2.33
2017-10-22T04:50:13.170Z,1.97
2017-10-22T04:52:39.924Z,2.30
2017-10-22T04:55:06.725Z,1.87
2017-10-22T04:57:34.212Z,2.00
2017-10-22T05:00:00.947Z,2.30
2017-10-22T05:02:27.679Z,2.10
2017-10-22T05:04:54.425Z,2.13
2017-10-22T05:07:21.508Z,2.07
2017-10-22T05:09:49.027Z,1.90
2017-10-22T05:12:15.748Z,2.10
2017-10-22T05:14:42.503Z,2.03
2017-10-22T05:17:09.248Z,1.87
2017-10-22T05:19:36.003Z,2.30
2017-10-22T05:22:02.977Z,1.73
2017-10-22T05:24:29.715Z,1.90
2017-10-22T05:26:56.468Z,1.60
2017-10-22T05:29:23.211Z,1.93
2017-10-22T05:31:49.956Z,1.73
2017-10-22T05:34:16.698Z,2.10
2017-10-22T05:36:43.715Z,1.90
2017-10-22T05:39:11.216Z,1.93
2017-10-22T05:41:37.980Z,1.77
2017-10-22T05:44:04.787Z,2.00
2017-10-22T05:46:31.517Z,2.17
2017-10-22T05:48:58.280Z,1.73
2017-10-22T05:51:25.028Z,2.50
2017-10-22T05:53:51.788Z,2.60
2017-10-22T05:56:19.295Z,2.17
2017-10-22T05:58:46.052Z,2.07
2017-10-22T06:01:12.813Z,1.80
2017-10-22T06:03:39.542Z,1.80
2017-10-22T06:06:06.282Z,1.90
2017-10-22T06:08:33.026Z,2.00
2017-10-22T06:10:59.776Z,1.70
2017-10-22T06:13:26.511Z,1.50
2017-10-22T06:15:53.268Z,2.33
2017-10-22T06:18:20.836Z,1.70
2017-10-22T06:20:47.554Z,1.60
2017-10-22T06:23:14.276Z,1.73
2017-10-22T06:25:41.069Z,1.70
2017-10-22T06:28:07.957Z,2.20
2017-10-22T06:30:34.693Z,1.50
2017-10-22T06:33:01.431Z,1.57
2017-10-22T06:35:28.178Z,1.80
2017-10-22T06:37:54.921Z,2.40
2017-10-22T06:40:21.639Z,2.13
2017-10-22T06:42:48.402Z,1.97
2017-10-22T06:45:15.136Z,2.20
2017-10-22T06:47:41.956Z,1.80
2017-10-22T06:50:08.712Z,1.47
2017-10-22T06:52:36.344Z,1.87
2017-10-22T06:55:03.072Z,1.70
2017-10-22T06:57:29.822Z,2.10
2017-10-22T06:59:56.625Z,1.50
2017-10-22T07:02:24.109Z,2.10
2017-10-22T07:04:50.878Z,2.37
2017-10-22T07:07:17.608Z,1.87
2017-10-22T07:09:45.267Z,1.70
2017-10-22T07:12:12.000Z,2.20
2017-10-22T07:14:38.804Z,1.97
2017-10-22T07:17:05.587Z,1.93
2017-10-22T07:19:32.307Z,1.90
2017-10-22T07:21:59.070Z,1.70
2017-10-22T07:24:25.804Z,2.47
2017-10-22T07:26:52.613Z,2.23
2017-10-22T07:29:19.361Z,1.87
2017-10-22T07:31:46.109Z,2.50
2017-10-22T07:34:14.061Z,1.77
2017-10-22T07:36:45.946Z,2.17
2017-10-22T07:39:13.490Z,2.17
2017-10-22T07:41:40.297Z,1.83
2017-10-22T07:44:07.829Z,1.60
2017-10-22T07:46:34.557Z,2.20
2017-10-22T07:49:01.292Z,2.20
2017-10-22T07:51:28.810Z,1.90
2017-10-22T07:53:55.574Z,1.73
2017-10-22T07:56:22.309Z,1.77
2017-10-22T07:58:49.048Z,2.20
2017-10-22T08:01:15.844Z,1.70
2017-10-22T08:03:43.345Z,2.03
2017-10-22T08:06:10.112Z,1.60
2017-10-22T08:08:36.992Z,2.13
2017-10-22T08:11:04.474Z,2.07
2017-10-22T08:13:31.232Z,1.63
2017-10-22T08:15:58.071Z,2.37
2017-10-22T08:18:24.870Z,2.10
2017-10-22T08:20:51.613Z,1.77
2017-10-22T08:23:18.375Z,1.70
2017-10-22T08:25:45.135Z,2.00
2017-10-22T08:28:11.885Z,1.77
2017-10-22T08:30:38.649Z,1.40
2017-10-22T08:33:06.164Z,1.60
2017-10-22T08:35:32.898Z,1.87
2017-10-22T08:37:59.661Z,1.90
2017-10-22T08:40:26.413Z,1.93
2017-10-22T08:42:53.166Z,1.53
2017-10-22T08:45:20.677Z,1.60
2017-10-22T08:47:47.408Z,2.07
2017-10-22T08:50:14.314Z,1.60
2017-10-22T08:52:41.826Z,1.70
2017-10-22T08:55:08.752Z,1.97
2017-10-22T08:57:35.654Z,1.40
2017-10-22T09:00:03.157Z,1.57
2017-10-22T09:02:29.900Z,1.67
2017-10-22T09:04:56.668Z,1.73
2017-10-22T09:07:24.166Z,1.33
2017-10-22T09:09:50.916Z,1.90
2017-10-22T09:12:17.682Z,1.50
2017-10-22T09:14:44.477Z,1.83
2017-10-22T09:17:11.224Z,1.63
2017-10-22T09:19:37.986Z,1.70
2017-10-22T09:22:04.725Z,2.03
2017-10-22T09:24:31.492Z,2.13
2017-10-22T09:26:58.249Z,1.90
2017-10-22T09:29:25.745Z,1.63
2017-10-22T09:31:52.506Z,1.60
2017-10-22T09:34:19.267Z,2.00
2017-10-22T09:36:46.804Z,2.03
2017-10-22T09:39:13.546Z,1.63
2017-10-22T09:41:40.291Z,1.70
2017-10-22T09:44:07.049Z,2.10
2017-10-22T09:46:34.550Z,1.97
2017-10-22T09:49:01.461Z,2.00
2017-10-22T09:51:28.189Z,1.80
2017-10-22T09:53:55.716Z,1.90
2017-10-22T09:56:22.515Z,2.43
2017-10-22T09:58:49.279Z,1.90
2017-10-22T10:01:16.029Z,2.00
2017-10-22T10:03:42.761Z,2.27
2017-10-22T10:06:09.616Z,2.23
2017-10-22T10:08:36.348Z,2.10
2017-10-22T10:11:03.104Z,2.03
2017-10-22T10:13:29.880Z,1.70
2017-10-22T10:15:57.372Z,1.90
2017-10-22T10:18:24.134Z,1.67
2017-10-22T10:20:50.901Z,1.73
2017-10-22T10:23:17.857Z,1.90
2017-10-22T10:25:44.572Z,2.40
2017-10-22T10:28:11.340Z,1.90
2017-10-22T10:30:38.841Z,2.20
2017-10-22T10:33:05.606Z,1.93
2017-10-22T10:35:33.116Z,1.87
2017-10-22T10:37:59.852Z,2.43
2017-10-22T10:40:26.604Z,1.83
2017-10-22T10:42:53.328Z,2.00
2017-10-22T10:45:20.141Z,2.17
2017-10-22T10:47:46.877Z,1.70
2017-10-22T10:50:13.641Z,1.83
2017-10-22T10:52:40.368Z,2.67
2017-10-22T10:55:07.132Z,2.50
2017-10-22T10:57:33.880Z,4.27
2017-10-22T11:00:00.605Z,2.53
2017-10-22T11:02:27.384Z,2.73
2017-10-22T11:04:54.116Z,2.20
2017-10-22T11:07:20.864Z,2.07
2017-10-22T11:09:47.618Z,3.07
2017-10-22T11:12:15.115Z,2.50
2017-10-22T11:14:41.891Z,2.70
2017-10-22T11:17:08.622Z,2.53
2017-10-22T11:19:35.367Z,2.83
2017-10-22T11:22:02.112Z,2.70
2017-10-22T11:24:28.882Z,2.97
2017-10-22T11:26:55.680Z,2.97
2017-10-22T11:29:22.419Z,2.37
2017-10-22T11:31:49.221Z,3.17
2017-10-22T11:34:15.967Z,2.77
2017-10-22T11:36:42.727Z,2.57
2017-10-22T11:39:09.461Z,2.67
2017-10-22T11:41:36.313Z,2.73
2017-10-22T11:44:03.034Z,3.00
2017-10-22T11:46:29.841Z,3.27
2017-10-22T11:48:56.580Z,3.27
2017-10-22T11:51:24.069Z,3.60
2017-10-22T11:53:50.892Z,2.67
2017-10-22T11:56:17.627Z,3.37
2017-10-22T11:58:44.357Z,3.47
2017-10-22T12:01:11.196Z,3.17
2017-10-22T12:03:37.921Z,2.97
2017-10-22T12:06:05.476Z,2.83
2017-10-22T12:08:32.990Z,3.30
2017-10-22T12:10:59.720Z,3.27
2017-10-22T12:13:26.465Z,3.23
2017-10-22T12:15:53.279Z,3.23
2017-10-22T12:18:20.803Z,3.30
2017-10-22T12:20:48.309Z,3.33
2017-10-22T12:23:15.120Z,2.93
2017-10-22T12:25:41.849Z,3.63
2017-10-22T12:28:09.397Z,3.53
2017-10-22T12:30:36.938Z,4.00
2017-10-22T12:33:03.682Z,3.57
2017-10-22T12:35:30.552Z,3.67
2017-10-22T12:37:58.116Z,3.03
2017-10-22T12:40:24.916Z,3.40
2017-10-22T12:42:51.692Z,4.30
2017-10-22T12:45:18.449Z,2.83
2017-10-22T12:47:45.192Z,2.67
2017-10-22T12:50:11.966Z,3.47
2017-10-22T12:52:38.745Z,3.70
2017-10-22T12:55:06.379Z,2.90
2017-10-22T12:57:34.382Z,3.00
2017-10-22T13:00:01.945Z,2.60
2017-10-22T13:02:28.713Z,2.77
2017-10-22T13:04:55.517Z,3.10
2017-10-22T13:07:23.043Z,3.80
2017-10-22T13:09:49.804Z,2.70
2017-10-22T13:12:17.683Z,3.00
2017-10-22T13:14:44.477Z,3.60
2017-10-22T13:17:11.213Z,2.70
2017-10-22T13:19:37.977Z,2.80
2017-10-22T13:22:05.587Z,3.30
2017-10-22T13:24:32.363Z,2.87
2017-10-22T13:26:59.092Z,2.77
2017-10-22T13:29:25.863Z,2.93
2017-10-22T13:31:53.364Z,3.60
2017-10-22T13:34:20.129Z,3.23
2017-10-22T13:36:46.931Z,3.53
2017-10-22T13:39:13.641Z,3.53
2017-10-22T13:41:40.409Z,4.33
2017-10-22T13:44:07.154Z,3.80
2017-10-22T13:46:33.897Z,3.37
2017-10-22T13:49:00.647Z,4.53
2017-10-22T13:51:28.537Z,4.27
2017-10-22T13:53:56.500Z,4.17
2017-10-22T13:56:23.560Z,3.57
2017-10-22T13:58:51.061Z,3.10
2017-10-22T14:01:17.791Z,3.07
2017-10-22T14:03:44.547Z,3.43
2017-10-22T14:06:11.279Z,4.70
2017-10-22T14:08:38.034Z,3.60
2017-10-22T14:11:04.818Z,3.97
2017-10-22T14:13:32.348Z,3.57
2017-10-22T14:15:59.108Z,3.87
2017-10-22T14:18:26.620Z,4.53
2017-10-22T14:20:53.610Z,4.07
2017-10-22T14:23:21.124Z,3.60
2017-10-22T14:25:47.881Z,3.70
2017-10-22T14:28:14.619Z,4.00
2017-10-22T14:30:41.386Z,3.30
2017-10-22T14:33:08.332Z,4.10
2017-10-22T14:35:35.865Z,3.33
2017-10-22T14:38:02.604Z,3.93
2017-10-22T14:40:29.377Z,4.00
2017-10-22T14:42:56.886Z,3.93
2017-10-22T14:45:23.629Z,4.27
2017-10-22T14:47:50.386Z,4.03
2017-10-22T14:50:17.122Z,3.60
2017-10-22T14:52:43.905Z,3.70
2017-10-22T14:55:10.661Z,4.30
2017-10-22T14:57:37.405Z,4.93
2017-10-22T15:00:04.162Z,3.97
2017-10-22T15:02:35.084Z,4.50
2017-10-22T15:05:02.648Z,3.87
2017-10-22T15:07:29.393Z,4.30
2017-10-22T15:09:56.432Z,4.10
2017-10-22T15:12:23.155Z,5.20
2017-10-22T15:14:50.723Z,4.87
2017-10-22T15:17:18.408Z,4.47
2017-10-22T15:19:46.548Z,3.90
2017-10-22T15:22:16.079Z,3.87
2017-10-22T15:24:42.948Z,4.00
2017-10-22T15:27:10.470Z,3.33
2017-10-22T15:29:37.220Z,4.20
2017-10-22T15:32:03.933Z,4.00
2017-10-22T15:34:30.736Z,2.90
2017-10-22T15:36:57.507Z,3.37
2017-10-22T15:39:24.618Z,3.67
2017-10-22T15:41:51.345Z,3.33
2017-10-22T15:44:18.080Z,3.43
2017-10-22T15:46:44.806Z,3.53
2017-10-22T15:49:11.556Z,3.80
2017-10-22T15:51:38.325Z,3.60
2017-10-22T15:54:05.070Z,3.43
2017-10-22T15:56:32.592Z,2.40
2017-10-22T15:59:00.105Z,2.60
2017-10-22T16:01:26.853Z,2.10
2017-10-22T16:03:53.650Z,3.10
2017-10-22T16:06:21.157Z,2.90
2017-10-22T16:08:47.892Z,2.47
2017-10-22T16:11:14.789Z,2.97
2017-10-22T16:13:42.352Z,2.83
2017-10-22T16:16:09.910Z,3.67
2017-10-22T16:18:36.686Z,3.17
2017-10-22T16:21:03.428Z,3.33
2017-10-22T16:23:30.181Z,2.90
2017-10-22T16:25:56.970Z,3.50
2017-10-22T16:28:24.459Z,3.73
2017-10-22T16:30:52.910Z,3.20
2017-10-22T16:33:20.005Z,3.37
2017-10-22T16:35:46.822Z,3.77
2017-10-22T16:38:13.561Z,3.80
2017-10-22T16:40:40.323Z,3.10
2017-10-22T16:43:07.868Z,3.90
2017-10-22T16:45:34.613Z,2.87
2017-10-22T16:48:01.393Z,3.10
2017-10-22T16:50:28.912Z,2.93
2017-10-22T16:52:55.672Z,3.07
2017-10-22T16:55:23.179Z,3.10
2017-10-22T16:57:50.104Z,2.50
2017-10-22T17:00:17.625Z,2.73
2017-10-22T17:02:45.879Z,2.77
2017-10-22T17:05:12.636Z,2.30
2017-10-22T17:07:39.374Z,2.60
2017-10-22T17:10:06.141Z,2.80
2017-10-22T17:12:33.657Z,3.00
2017-10-22T17:15:00.428Z,3.03
2017-10-22T17:17:28.103Z,2.80
2017-10-22T17:19:54.857Z,2.60
2017-10-22T17:22:21.688Z,3.07
2017-10-22T17:24:49.153Z,2.87
2017-10-22T17:27:15.936Z,3.10
2017-10-22T17:29:42.748Z,3.20
2017-10-22T17:32:09.507Z,2.60
2017-10-22T17:34:36.236Z,3.13
2017-10-22T17:37:02.997Z,2.97
2017-10-22T17:39:29.739Z,2.73
2017-10-22T17:41:56.497Z,3.00
2017-10-22T17:44:24.036Z,3.17
2017-10-22T17:46:50.770Z,2.63
2017-10-22T17:49:17.525Z,2.50
2017-10-22T17:51:44.386Z,2.50
2017-10-22T17:54:11.865Z,2.80
2017-10-22T17:56:38.696Z,2.90
2017-10-22T17:59:05.499Z,3.10
2017-10-22T18:01:32.273Z,3.20
2017-10-22T18:03:59.012Z,3.03
2017-10-22T18:06:25.790Z,2.83
2017-10-22T18:08:52.533Z,3.33
2017-10-22T18:11:19.282Z,2.80
2017-10-22T18:13:46.032Z,3.03
2017-10-22T18:16:12.770Z,2.93
2017-10-22T18:18:39.538Z,2.97
2017-10-22T18:21:07.936Z,3.40
2017-10-22T18:23:35.459Z,3.37
2017-10-22T18:26:02.238Z,2.90
2017-10-22T18:28:29.447Z,3.40
2017-10-22T18:30:56.233Z,3.10
2017-10-22T18:33:23.001Z,3.13
2017-10-22T18:35:49.748Z,2.80
2017-10-22T18:38:16.517Z,3.73
2017-10-22T18:40:44.034Z,3.47
2017-10-22T18:43:10.794Z,3.30
2017-10-22T18:45:39.046Z,3.07
2017-10-22T18:48:05.782Z,3.40
2017-10-22T18:50:32.538Z,3.30
2017-10-22T18:52:59.261Z,4.53
2017-10-22T18:55:26.025Z,3.90
2017-10-22T18:57:53.697Z,4.00
2017-10-22T19:00:20.472Z,3.70
2017-10-22T19:02:47.229Z,4.17
2017-10-22T19:05:14.279Z,3.90
2017-10-22T19:07:41.007Z,3.77
2017-10-22T19:10:07.752Z,3.67
2017-10-22T19:12:34.508Z,3.77
2017-10-22T19:15:01.258Z,3.87
2017-10-22T19:17:28.792Z,3.17
2017-10-22T19:19:55.535Z,3.70
2017-10-22T19:22:22.358Z,3.73
2017-10-22T19:24:49.248Z,4.03
2017-10-22T19:27:16.012Z,3.90
2017-10-22T19:29:43.523Z,3.83
2017-10-22T19:32:10.267Z,4.03
2017-10-22T19:34:37.055Z,3.43
2017-10-22T19:37:04.845Z,4.07
2017-10-22T19:42:06.685Z,3.00
2017-10-22T19:44:35.604Z,3.57
2017-10-22T19:47:04.110Z,3.27
2017-10-22T19:49:31.704Z,2.70
2017-10-22T19:51:58.460Z,3.37
2017-10-22T19:54:25.937Z,3.53
2017-10-22T19:56:52.716Z,3.47
2017-10-22T19:59:19.471Z,4.30
2017-10-22T20:01:46.231Z,3.00
2017-10-22T20:04:14.409Z,3.17
2017-10-22T20:06:41.168Z,3.00
2017-10-22T20:09:07.884Z,3.77
2017-10-22T20:11:34.660Z,2.80
2017-10-22T20:14:01.406Z,3.07
2017-10-22T20:16:28.131Z,3.10
2017-10-22T20:18:54.877Z,4.10
2017-10-22T20:21:21.638Z,2.70
2017-10-22T20:23:48.381Z,4.00
2017-10-22T20:26:15.493Z,3.53
2017-10-22T20:28:42.358Z,3.83
2017-10-22T20:31:09.101Z,3.13
2017-10-22T20:33:37.392Z,3.60
2017-10-22T20:36:06.753Z,3.40
2017-10-22T20:38:33.936Z,2.93
2017-10-22T20:41:00.680Z,2.83
2017-10-22T20:43:27.416Z,2.90
2017-10-22T20:45:54.166Z,3.53
2017-10-22T20:48:21.690Z,2.90
2017-10-22T20:50:49.720Z,3.97
2017-10-22T20:53:17.330Z,3.20
2017-10-22T20:55:45.010Z,3.40
2017-10-22T20:58:12.605Z,3.20
2017-10-22T21:00:39.452Z,2.87
2017-10-22T21:03:06.158Z,3.07
2017-10-22T21:05:33.703Z,3.40
2017-10-22T21:08:01.194Z,2.70
2017-10-22T21:10:28.040Z,3.00
2017-10-22T21:12:54.797Z,3.60
2017-10-22T21:15:21.588Z,3.53
2017-10-22T21:17:49.109Z,2.73
2017-10-22T21:20:15.867Z,3.07
2017-10-22T21:22:42.788Z,2.90
2017-10-22T21:25:09.536Z,3.80
2017-10-22T21:27:36.661Z,3.10
2017-10-22T21:30:03.388Z,3.30
2017-10-22T21:32:30.124Z,3.17
2017-10-22T21:34:57.251Z,2.87
2017-10-22T21:37:24.011Z,3.10
2017-10-22T21:39:50.766Z,3.57
2017-10-22T21:42:17.523Z,2.87
2017-10-22T21:44:44.301Z,2.97
2017-10-22T21:47:11.796Z,3.40
2017-10-22T21:49:40.142Z,2.70
2017-10-22T21:52:06.878Z,2.77
2017-10-22T21:54:34.439Z,2.80
2017-10-22T21:57:02.087Z,2.80
2017-10-22T21:59:29.612Z,2.70
2017-10-22T22:01:56.396Z,2.90
2017-10-22T22:04:23.135Z,2.40
2017-10-22T22:06:49.905Z,2.60
2017-10-22T22:09:16.632Z,2.93
2017-10-22T22:11:43.361Z,2.47
2017-10-22T22:14:10.145Z,2.60
2017-10-22T22:16:36.913Z,3.00
2017-10-22T22:19:04.424Z,3.00
2017-10-22T22:21:31.172Z,3.10
2017-10-22T22:23:57.899Z,2.97
2017-10-22T22:26:24.641Z,2.80
2017-10-22T22:28:51.420Z,3.20
2017-10-22T22:31:18.920Z,3.40
2017-10-22T22:33:45.653Z,2.90
2017-10-22T22:36:12.403Z,2.97
2017-10-22T22:38:39.134Z,3.20
2017-10-22T22:41:05.957Z,3.00
2017-10-22T22:43:32.659Z,3.00
2017-10-22T22:45:59.437Z,2.97
2017-10-22T22:48:26.176Z,3.03
2017-10-22T22:50:52.929Z,3.10
2017-10-22T22:53:19.672Z,2.80
2017-10-22T22:55:46.433Z,2.40
2017-10-22T22:58:13.196Z,2.70
2017-10-22T23:00:39.955Z,3.10
2017-10-22T23:03:07.485Z,3.27
2017-10-22T23:05:34.213Z,2.73
2017-10-22T23:08:00.944Z,3.10
2017-10-22T23:10:27.700Z,2.97
2017-10-22T23:12:54.494Z,2.93
2017-10-22T23:15:21.244Z,3.10
2017-10-22T23:17:47.976Z,3.53
2017-10-22T23:20:14.726Z,3.40
2017-10-22T23:22:41.486Z,3.10
2017-10-22T23:25:08.219Z,3.27
2017-10-22T23:27:34.952Z,3.20
2017-10-22T23:30:01.743Z,3.03
2017-10-22T23:32:28.472Z,3.03
2017-10-22T23:34:55.970Z,3.20
2017-10-22T23:37:22.721Z,3.30
2017-10-22T23:39:49.464Z,3.23
2017-10-22T23:42:16.209Z,3.73
2017-10-22T23:44:42.944Z,3.27
2017-10-22T23:47:09.706Z,2.77
2017-10-22T23:49:36.448Z,3.67
2017-10-22T23:52:03.200Z,3.47
2017-10-22T23:54:30.123Z,3.10
2017-10-22T23:56:56.952Z,3.20
2017-10-22T23:59:23.681Z,4.37
